createdAt,value
2018-09-02T00:01:40.151Z,72.92
2018-09-02T00:04:10.130Z,73.19
2018-09-02T00:06:40.088Z,71.29
2018-09-02T00:09:09.953Z,70.68
2018-09-02T00:11:39.941Z,69.99
2018-09-02T00:14:10.215Z,70.89
2018-09-02T00:16:42.354Z,70.07
2018-09-02T00:19:13.157Z,71.26
2018-09-02T00:21:43.129Z,74.08
2018-09-02T00:24:13.394Z,73.85
2018-09-02T00:26:43.420Z,74.51
2018-09-02T00:29:13.503Z,73.98
2018-09-02T00:31:43.500Z,74.48
2018-09-02T00:34:13.560Z,72.72
2018-09-02T00:36:43.517Z,70.91
2018-09-02T00:39:13.416Z,70.78
2018-09-02T00:41:43.796Z,70.76
2018-09-02T00:44:14.470Z,71.25
2018-09-02T00:46:44.524Z,70.74
2018-09-02T00:49:14.535Z,72.75
2018-09-02T00:51:44.449Z,74.24
2018-09-02T00:54:14.456Z,74.56
2018-09-02T00:56:44.472Z,74.76
2018-09-02T00:59:14.382Z,74.59
2018-09-02T01:01:44.269Z,75.20
2018-09-02T01:04:14.183Z,75.02
2018-09-02T01:06:44.514Z,76.83
2018-09-02T01:09:14.484Z,74.55
2018-09-02T01:11:44.426Z,73.19
2018-09-02T01:14:14.818Z,72.87
2018-09-02T01:16:45.016Z,71.13
2018-09-02T01:19:15.000Z,70.65
2018-09-02T01:21:45.689Z,71.29
2018-09-02T01:24:15.653Z,70.78
2018-09-02T01:26:45.641Z,69.98
2018-09-02T01:29:16.272Z,72.15
2018-09-02T01:31:46.187Z,74.43
2018-09-02T01:34:16.160Z,74.46
2018-09-02T01:36:46.216Z,75.87
2018-09-02T01:39:16.151Z,76.41
2018-09-02T01:41:46.625Z,76.38
2018-09-02T01:44:16.652Z,77.18
2018-09-02T01:46:46.692Z,76.67
2018-09-02T01:49:16.996Z,75.57
2018-09-02T01:51:47.129Z,75.42
2018-09-02T01:54:17.379Z,74.33
2018-09-02T01:56:47.390Z,73.54
2018-09-02T01:59:17.397Z,71.47
2018-09-02T02:01:47.458Z,70.02
2018-09-02T02:04:17.428Z,70.33
2018-09-02T02:06:47.503Z,74.11
2018-09-02T02:09:17.770Z,74.51
2018-09-02T02:11:47.756Z,74.07
2018-09-02T02:14:17.854Z,75.14
2018-09-02T02:16:47.916Z,76.23
2018-09-02T02:19:17.814Z,76.02
2018-09-02T02:21:47.864Z,74.98
2018-09-02T02:24:18.146Z,74.26
2018-09-02T02:26:48.105Z,73.93
2018-09-02T02:29:18.114Z,73.47
2018-09-02T02:31:48.175Z,74.45
2018-09-02T02:34:18.094Z,75.84
2018-09-02T02:36:48.349Z,75.13
2018-09-02T02:39:18.800Z,75.62
2018-09-02T02:41:49.018Z,75.21
2018-09-02T02:44:19.062Z,76.16
2018-09-02T02:46:49.076Z,76.04
2018-09-02T02:49:19.040Z,75.89
2018-09-02T02:51:49.001Z,77.04
2018-09-02T02:54:18.986Z,75.62
2018-09-02T02:56:49.139Z,74.22
2018-09-02T02:59:19.110Z,72.52
2018-09-02T03:01:49.506Z,72.10
2018-09-02T03:04:19.740Z,74.06
2018-09-02T03:06:50.098Z,73.80
2018-09-02T03:09:20.110Z,73.99
2018-09-02T03:11:50.547Z,74.90
2018-09-02T03:14:20.565Z,75.25
2018-09-02T03:16:50.545Z,76.24
2018-09-02T03:19:20.599Z,76.68
2018-09-02T03:21:50.599Z,76.44
2018-09-02T03:24:20.716Z,75.45
2018-09-02T03:26:50.808Z,74.90
2018-09-02T03:29:21.200Z,74.14
2018-09-02T03:31:51.220Z,74.70
2018-09-02T03:34:21.729Z,73.98
2018-09-02T03:36:52.289Z,74.84
2018-09-02T03:39:22.350Z,76.86
2018-09-02T03:41:52.660Z,76.00
2018-09-02T03:44:22.872Z,76.03
2018-09-02T03:46:52.863Z,76.11
2018-09-02T03:49:23.273Z,75.12
2018-09-02T03:51:53.291Z,75.22
2018-09-02T03:54:23.350Z,77.15
2018-09-02T03:56:53.475Z,77.77
2018-09-02T03:59:23.588Z,77.67
2018-09-02T04:01:53.609Z,78.13
2018-09-02T04:04:23.930Z,79.51
2018-09-02T04:06:53.963Z,76.60
2018-09-02T04:09:24.402Z,76.30
2018-09-02T04:11:54.535Z,75.21
2018-09-02T04:14:24.589Z,74.36
2018-09-02T04:16:54.656Z,73.97
2018-09-02T04:19:24.672Z,75.82
2018-09-02T04:21:55.050Z,74.33
2018-09-02T04:24:25.114Z,76.68
2018-09-02T04:26:55.227Z,77.97
2018-09-02T04:29:25.278Z,77.67
2018-09-02T04:31:55.311Z,78.22
2018-09-02T04:34:31.406Z,78.37
2018-09-02T04:37:01.562Z,76.36
2018-09-02T04:39:31.375Z,73.63
2018-09-02T04:42:01.111Z,73.46
2018-09-02T04:47:31.273Z,77.53
2018-09-02T04:50:15.718Z,76.84
2018-09-02T04:52:45.858Z,78.61
2018-09-02T04:55:15.936Z,79.42
2018-09-02T04:57:47.859Z,79.13
2018-09-02T05:00:18.825Z,77.80
2018-09-02T05:02:49.273Z,78.74
2018-09-02T05:05:20.185Z,79.19
2018-09-02T05:07:50.256Z,79.87
2018-09-02T05:10:20.090Z,80.04
2018-09-02T05:12:49.899Z,79.43
2018-09-02T05:15:19.723Z,80.81
2018-09-02T05:17:49.950Z,78.38
2018-09-02T05:20:28.304Z,78.69
2018-09-02T05:22:58.227Z,76.64
2018-09-02T05:25:28.109Z,75.49
2018-09-02T05:27:58.806Z,76.33
2018-09-02T05:30:51.532Z,74.64
2018-09-02T05:33:22.645Z,79.23
2018-09-02T05:35:53.667Z,77.32
2018-09-02T05:38:23.725Z,80.28
2018-09-02T05:40:53.808Z,78.77
2018-09-02T05:43:36.685Z,78.84
2018-09-02T05:46:07.221Z,79.67
2018-09-02T05:48:37.821Z,79.04
2018-09-02T05:51:07.782Z,77.44
2018-09-02T05:53:38.012Z,79.18
2018-09-02T05:56:14.813Z,76.98
2018-09-02T05:58:51.424Z,75.56
2018-09-02T06:01:21.523Z,75.43
2018-09-02T06:03:52.339Z,74.85
2018-09-02T06:06:25.979Z,74.47
2018-09-02T06:09:03.116Z,73.85
2018-09-02T06:11:41.258Z,77.54
2018-09-02T06:14:15.782Z,75.41
2018-09-02T06:16:46.636Z,79.10
2018-09-02T06:19:16.693Z,77.88
2018-09-02T06:21:46.743Z,76.65
2018-09-02T06:24:24.364Z,79.68
2018-09-02T06:26:54.217Z,79.26
2018-09-02T06:29:24.351Z,78.41
2018-09-02T06:31:54.253Z,80.33
2018-09-02T06:34:24.564Z,80.80
2018-09-02T06:37:02.077Z,79.47
2018-09-02T06:39:40.923Z,79.90
2018-09-02T06:42:10.902Z,83.13
2018-09-02T06:44:41.012Z,84.10
2018-09-02T06:47:11.973Z,83.61
2018-09-02T06:49:42.894Z,84.44
2018-09-02T06:52:13.083Z,84.28
2018-09-02T06:54:43.298Z,85.12
2018-09-02T06:57:13.772Z,86.05
2018-09-02T06:59:43.859Z,85.72
2018-09-02T07:02:13.888Z,85.03
2018-09-02T07:04:43.794Z,84.60
2018-09-02T07:07:14.469Z,85.76
2018-09-02T07:09:44.726Z,86.44
2018-09-02T07:12:14.841Z,86.10
2018-09-02T07:14:45.078Z,85.12
2018-09-02T07:17:15.125Z,85.12
2018-09-02T07:19:45.174Z,85.94
2018-09-02T07:22:15.238Z,85.62
2018-09-02T07:24:45.503Z,85.59
2018-09-02T07:27:15.573Z,84.21
2018-09-02T07:29:47.029Z,84.83
2018-09-02T07:32:17.071Z,83.74
2018-09-02T07:34:47.120Z,83.68
2018-09-02T07:37:23.238Z,83.63
2018-09-02T07:39:55.731Z,83.05
2018-09-02T07:42:25.721Z,82.78
2018-09-02T07:44:55.817Z,82.26
2018-09-02T07:47:26.264Z,82.33
2018-09-02T07:49:56.242Z,81.44
2018-09-02T07:52:26.322Z,81.48
2018-09-02T07:54:56.363Z,81.56
2018-09-02T07:57:27.553Z,79.98
2018-09-02T07:59:57.547Z,80.03
2018-09-02T08:02:27.618Z,79.52
2018-09-02T08:04:57.606Z,78.64
2018-09-02T08:07:27.663Z,78.21
2018-09-02T08:09:57.635Z,78.35
2018-09-02T08:12:27.670Z,77.50
2018-09-02T08:14:57.545Z,77.81
2018-09-02T08:17:27.520Z,77.05
2018-09-02T08:20:03.157Z,75.62
2018-09-02T08:22:34.525Z,76.19
2018-09-02T08:25:16.280Z,75.75
2018-09-02T08:27:47.292Z,76.24
2018-09-02T08:30:17.194Z,75.65
2018-09-02T08:32:47.120Z,73.99
2018-09-02T08:35:17.088Z,73.99
2018-09-02T08:37:49.856Z,73.36
2018-09-02T08:40:19.866Z,71.25
2018-09-02T08:42:49.772Z,71.03
2018-09-02T08:45:19.678Z,69.92
2018-09-02T08:47:49.605Z,69.40
2018-09-02T08:50:19.585Z,69.65
2018-09-02T08:52:49.497Z,68.50
2018-09-02T08:55:19.357Z,67.96
2018-09-02T08:57:49.267Z,69.99
2018-09-02T09:00:21.418Z,68.75
2018-09-02T09:02:53.647Z,66.43
2018-09-02T09:05:23.975Z,67.08
2018-09-02T09:07:54.097Z,67.20
2018-09-02T09:10:25.859Z,65.74
2018-09-02T09:12:55.752Z,65.79
2018-09-02T09:15:29.040Z,66.02
2018-09-02T09:17:58.989Z,65.17
2018-09-02T09:20:28.775Z,63.83
2018-09-02T09:22:58.723Z,65.45
2018-09-02T09:25:28.641Z,64.73
2018-09-02T09:27:58.512Z,63.11
2018-09-02T09:30:28.397Z,60.85
2018-09-02T09:32:58.566Z,60.17
2018-09-02T09:35:29.268Z,60.01
2018-09-02T09:37:59.229Z,59.47
2018-09-02T09:40:29.208Z,61.51
2018-09-02T09:43:00.404Z,57.50
2018-09-02T09:45:31.889Z,60.05
2018-09-02T09:48:01.757Z,60.87
2018-09-02T09:50:32.217Z,57.87
2018-09-02T09:53:03.204Z,58.63
2018-09-02T09:55:33.346Z,57.94
2018-09-02T09:58:03.335Z,57.23
2018-09-02T10:00:38.529Z,58.34
2018-09-02T10:03:08.443Z,56.89
2018-09-02T10:05:38.322Z,57.56
2018-09-02T10:08:08.232Z,56.10
2018-09-02T10:10:38.135Z,56.40
2018-09-02T10:13:08.062Z,54.61
2018-09-02T10:15:38.420Z,56.48
2018-09-02T10:18:08.447Z,54.03
2018-09-02T10:20:38.267Z,54.62
2018-09-02T10:23:08.023Z,53.95
2018-09-02T10:25:43.896Z,54.63
2018-09-02T10:28:13.917Z,52.26
2018-09-02T10:30:43.838Z,53.14
2018-09-02T10:33:13.788Z,51.66
2018-09-02T10:35:43.592Z,51.08
2018-09-02T10:38:13.528Z,52.44
2018-09-02T10:40:43.512Z,50.64
2018-09-02T10:43:13.360Z,51.69
2018-09-02T10:45:43.210Z,50.13
2018-09-02T10:48:13.251Z,50.31
2018-09-02T10:50:43.078Z,49.71
2018-09-02T10:56:08.724Z,48.70
2018-09-02T10:58:38.652Z,50.24
2018-09-02T11:01:08.839Z,48.74
2018-09-02T11:03:38.655Z,49.23
2018-09-02T11:06:08.455Z,46.73
2018-09-02T11:08:38.416Z,47.38
2018-09-02T11:11:08.376Z,48.02
2018-09-02T11:13:38.381Z,48.36
2018-09-02T11:16:08.306Z,48.40
2018-09-02T11:18:38.258Z,48.72
2018-09-02T11:21:08.184Z,47.69
2018-09-02T11:23:38.165Z,50.59
2018-09-02T11:26:08.858Z,47.40
2018-09-02T11:28:38.931Z,49.34
2018-09-02T11:31:08.753Z,48.30
2018-09-02T11:33:38.511Z,48.79
2018-09-02T11:36:08.003Z,48.24
2018-09-02T11:38:37.977Z,46.54
2018-09-02T11:41:07.909Z,47.94
2018-09-02T11:43:37.893Z,46.61
2018-09-02T11:46:08.009Z,47.30
2018-09-02T11:48:37.821Z,46.68
2018-09-02T11:51:08.072Z,46.92
2018-09-02T11:53:38.225Z,45.29
2018-09-02T11:56:08.189Z,45.28
2018-09-02T11:58:38.063Z,46.22
2018-09-02T12:01:08.006Z,45.82
2018-09-02T12:03:38.181Z,46.78
2018-09-02T12:06:08.073Z,45.14
2018-09-02T12:08:37.973Z,44.63
2018-09-02T12:11:07.822Z,44.40
2018-09-02T12:13:37.750Z,46.46
2018-09-02T12:16:07.611Z,44.18
2018-09-02T12:18:37.505Z,43.61
2018-09-02T12:21:07.495Z,44.11
2018-09-02T12:23:37.320Z,43.98
2018-09-02T12:26:07.255Z,44.58
2018-09-02T12:28:37.070Z,44.06
2018-09-02T12:31:06.868Z,46.32
2018-09-02T12:33:36.911Z,45.86
2018-09-02T12:36:08.471Z,43.80
2018-09-02T12:38:38.700Z,44.82
2018-09-02T12:41:08.646Z,42.87
2018-09-02T12:43:38.598Z,43.82
2018-09-02T12:46:08.320Z,45.82
2018-09-02T12:48:37.992Z,44.50
2018-09-02T12:51:07.782Z,43.28
2018-09-02T12:53:37.410Z,45.09
2018-09-02T12:56:07.075Z,43.95
2018-09-02T12:58:36.934Z,44.53
2018-09-02T13:01:06.664Z,43.69
2018-09-02T13:03:36.714Z,43.10
2018-09-02T13:06:06.350Z,43.28
2018-09-02T13:08:36.094Z,43.33
2018-09-02T13:11:05.835Z,42.46
2018-09-02T13:13:35.468Z,42.70
2018-09-02T13:16:05.179Z,42.65
2018-09-02T13:18:34.878Z,42.11
2018-09-02T13:21:05.433Z,42.67
2018-09-02T13:23:35.064Z,43.05
2018-09-02T13:26:04.717Z,42.90
2018-09-02T13:28:34.363Z,43.04
2018-09-02T13:31:03.990Z,41.27
2018-09-02T13:33:33.667Z,42.63
2018-09-02T13:36:03.777Z,42.73
2018-09-02T13:38:33.727Z,41.42
2018-09-02T13:41:03.320Z,41.49
2018-09-02T13:43:32.912Z,41.63
2018-09-02T13:46:02.510Z,41.39
2018-09-02T13:48:32.247Z,41.60
2018-09-02T13:51:01.808Z,42.12
2018-09-02T13:53:31.471Z,42.15
2018-09-02T13:56:01.110Z,40.55
2018-09-02T13:58:30.802Z,40.96
2018-09-02T14:01:00.488Z,41.43
2018-09-02T14:03:30.067Z,40.63
2018-09-02T14:05:59.734Z,41.11
2018-09-02T14:08:29.358Z,40.46
2018-09-02T14:10:58.999Z,40.83
2018-09-02T14:13:28.624Z,40.73
2018-09-02T14:15:58.316Z,40.38
2018-09-02T14:18:27.988Z,40.45
2018-09-02T14:20:57.676Z,40.83
2018-09-02T14:23:27.345Z,41.23
2018-09-02T14:25:57.027Z,40.10
2018-09-02T14:28:26.641Z,41.02
2018-09-02T14:30:56.322Z,40.88
2018-09-02T14:33:25.963Z,40.72
2018-09-02T14:35:55.736Z,40.38
2018-09-02T14:38:25.366Z,40.54
2018-09-02T14:40:55.033Z,40.17
2018-09-02T14:43:24.711Z,40.25
2018-09-02T14:45:54.362Z,40.57
2018-09-02T14:48:23.968Z,40.79
2018-09-02T14:50:53.640Z,41.06
2018-09-02T14:53:23.234Z,40.53
2018-09-02T14:55:52.856Z,40.29
2018-09-02T14:58:22.570Z,41.16
2018-09-02T15:00:52.246Z,41.66
2018-09-02T15:03:21.889Z,40.69
2018-09-02T15:05:51.603Z,40.82
2018-09-02T15:08:21.270Z,39.65
2018-09-02T15:10:50.990Z,41.19
2018-09-02T15:13:20.866Z,40.74
2018-09-02T15:15:50.473Z,39.79
2018-09-02T15:18:20.176Z,40.59
2018-09-02T15:20:49.809Z,39.89
2018-09-02T15:23:19.457Z,39.40
2018-09-02T15:25:49.354Z,40.40
2018-09-02T15:28:19.487Z,40.70
2018-09-02T15:30:49.131Z,40.51
2018-09-02T15:33:18.804Z,39.17
2018-09-02T15:35:48.731Z,39.70
2018-09-02T15:38:18.400Z,39.75
2018-09-02T15:40:48.077Z,39.75
2018-09-02T15:43:17.812Z,40.62
2018-09-02T15:45:47.498Z,39.79
2018-09-02T15:48:17.143Z,40.53
2018-09-02T15:50:46.784Z,39.54
2018-09-02T15:53:16.474Z,39.83
2018-09-02T15:55:46.485Z,40.40
2018-09-02T15:58:17.055Z,40.53
2018-09-02T16:00:46.994Z,40.48
2018-09-02T16:03:16.728Z,40.16
2018-09-02T16:05:46.424Z,39.55
2018-09-02T16:08:16.083Z,40.73
2018-09-02T16:10:45.685Z,39.51
2018-09-02T16:13:15.288Z,40.81
2018-09-02T16:15:44.923Z,40.32
2018-09-02T16:18:14.556Z,40.16
2018-09-02T16:20:44.208Z,41.30
2018-09-02T16:23:13.839Z,40.35
2018-09-02T16:25:43.471Z,40.06
2018-09-02T16:28:25.746Z,40.55
2018-09-02T16:30:55.400Z,41.01
2018-09-02T16:33:25.060Z,41.97
2018-09-02T16:35:54.749Z,41.58
2018-09-02T16:38:41.974Z,42.11
2018-09-02T16:41:11.896Z,42.52
2018-09-02T16:43:41.451Z,41.99
2018-09-02T16:46:11.110Z,43.02
2018-09-02T16:48:41.021Z,42.99
2018-09-02T16:51:10.909Z,42.34
2018-09-02T16:53:40.582Z,42.75
2018-09-02T16:56:10.248Z,42.05
2018-09-02T16:58:39.978Z,43.06
2018-09-02T17:01:09.569Z,42.60
2018-09-02T17:03:42.290Z,43.31
2018-09-02T17:06:11.964Z,42.78
2018-09-02T17:08:41.560Z,43.14
2018-09-02T17:11:11.194Z,43.73
2018-09-02T17:13:40.859Z,43.99
2018-09-02T17:16:10.481Z,42.52
2018-09-02T17:18:40.191Z,43.51
2018-09-02T17:21:20.540Z,43.22
2018-09-02T17:23:50.925Z,43.94
2018-09-02T17:26:20.562Z,43.74
2018-09-02T17:28:51.191Z,44.33
2018-09-02T17:31:21.888Z,43.72
2018-09-02T17:33:53.551Z,43.62
2018-09-02T17:36:28.027Z,43.66
2018-09-02T17:38:58.115Z,44.94
2018-09-02T17:41:28.072Z,43.76
2018-09-02T17:44:03.242Z,43.56
2018-09-02T17:46:33.017Z,43.77
2018-09-02T17:49:02.887Z,43.79
2018-09-02T17:51:32.858Z,44.23
2018-09-02T17:54:02.462Z,43.82
2018-09-02T17:56:32.159Z,44.60
2018-09-02T17:59:01.929Z,45.08
2018-09-02T18:01:31.664Z,45.76
2018-09-02T18:04:01.521Z,45.91
2018-09-02T18:06:31.167Z,45.22
2018-09-02T18:09:00.818Z,45.34
2018-09-02T18:11:30.444Z,46.33
2018-09-02T18:14:00.103Z,46.83
2018-09-02T18:16:30.168Z,46.75
2018-09-02T18:18:59.859Z,46.19
2018-09-02T18:21:29.553Z,45.79
2018-09-02T18:23:59.356Z,46.40
2018-09-02T18:26:29.096Z,45.65
2018-09-02T18:28:58.815Z,46.26
2018-09-02T18:31:28.496Z,47.28
2018-09-02T18:33:58.985Z,46.39
2018-09-02T18:36:43.004Z,47.06
2018-09-02T18:39:15.863Z,46.13
2018-09-02T18:41:45.691Z,47.29
2018-09-02T18:44:25.245Z,46.61
2018-09-02T18:46:57.061Z,47.31
2018-09-02T18:49:28.430Z,47.24
2018-09-02T18:51:58.557Z,46.46
2018-09-02T18:54:30.405Z,47.23
2018-09-02T18:57:00.210Z,47.55
2018-09-02T18:59:29.921Z,47.29
2018-09-02T19:01:59.679Z,47.50
2018-09-02T19:04:30.911Z,48.16
2018-09-02T19:07:06.688Z,48.20
2018-09-02T19:09:36.582Z,47.87
2018-09-02T19:12:06.863Z,48.87
2018-09-02T19:14:36.844Z,48.44
2018-09-02T19:17:06.748Z,48.96
2018-09-02T19:19:36.491Z,48.92
2018-09-02T19:22:06.690Z,49.03
2018-09-02T19:24:36.447Z,49.30
2018-09-02T19:27:06.281Z,49.74
2018-09-02T19:29:36.366Z,49.68
2018-09-02T19:32:06.253Z,49.67
2018-09-02T19:34:35.973Z,49.25
2018-09-02T19:37:05.786Z,49.37
2018-09-02T19:39:35.499Z,49.58
2018-09-02T19:42:05.315Z,49.98
2018-09-02T19:44:35.031Z,50.21
2018-09-02T19:47:04.958Z,50.17
2018-09-02T19:49:34.865Z,51.06
2018-09-02T19:52:05.169Z,50.65
2018-09-02T19:54:34.851Z,50.81
2018-09-02T19:57:04.628Z,50.73
2018-09-02T19:59:34.434Z,51.08
2018-09-02T20:02:04.483Z,51.36
2018-09-02T20:04:46.955Z,50.71
2018-09-02T20:07:16.776Z,50.46
2018-09-02T20:09:46.407Z,51.01
2018-09-02T20:12:16.191Z,51.11
2018-09-02T20:14:45.941Z,50.92
2018-09-02T20:17:15.661Z,51.07
2018-09-02T20:19:46.263Z,51.30
2018-09-02T20:22:15.939Z,52.09
2018-09-02T20:24:45.741Z,51.88
2018-09-02T20:27:16.264Z,51.72
2018-09-02T20:29:46.032Z,51.80
2018-09-02T20:32:15.668Z,52.75
2018-09-02T20:34:45.346Z,52.58
2018-09-02T20:37:15.011Z,52.19
2018-09-02T20:39:45.432Z,52.21
2018-09-02T20:42:15.358Z,52.96
2018-09-02T20:44:48.904Z,52.80
2018-09-02T20:47:18.998Z,53.82
2018-09-02T20:49:49.070Z,53.95
2018-09-02T20:52:20.810Z,53.75
2018-09-02T20:54:51.015Z,54.50
2018-09-02T20:57:22.027Z,53.66
2018-09-02T20:59:51.974Z,54.40
2018-09-02T21:02:22.003Z,54.30
2018-09-02T21:04:51.746Z,54.81
2018-09-02T21:07:21.442Z,54.51
2018-09-02T21:09:51.431Z,54.97
2018-09-02T21:12:21.095Z,54.79
2018-09-02T21:14:50.925Z,54.90
2018-09-02T21:17:20.604Z,54.91
2018-09-02T21:20:12.461Z,55.56
2018-09-02T21:22:42.287Z,55.34
2018-09-02T21:25:12.218Z,55.87
2018-09-02T21:27:41.960Z,56.36
2018-09-02T21:30:11.623Z,56.70
2018-09-02T21:32:41.297Z,56.84
2018-09-02T21:35:16.903Z,57.15
2018-09-02T21:37:46.998Z,56.82
2018-09-02T21:40:17.097Z,57.51
2018-09-02T21:42:48.032Z,57.34
2018-09-02T21:45:17.739Z,57.57
2018-09-02T21:47:47.362Z,57.33
2018-09-02T21:50:17.600Z,57.59
2018-09-02T21:52:47.667Z,57.36
2018-09-02T21:55:17.595Z,58.01
2018-09-02T21:57:47.445Z,57.87
2018-09-02T22:00:18.033Z,58.33
2018-09-02T22:02:47.666Z,58.68
2018-09-02T22:05:18.327Z,59.11
2018-09-02T22:07:48.176Z,58.86
2018-09-02T22:10:18.036Z,59.34
2018-09-02T22:13:19.363Z,58.92
2018-09-02T22:16:08.831Z,59.37
2018-09-02T22:28:14.910Z,60.26
2018-09-02T22:30:44.751Z,60.83
2018-09-02T22:33:15.063Z,61.25
2018-09-02T22:35:45.632Z,60.44
2018-09-02T22:41:40.149Z,60.96
2018-09-02T22:44:09.959Z,60.53
2018-09-02T22:46:39.727Z,60.56
2018-09-02T22:49:09.428Z,61.08
2018-09-02T22:51:40.346Z,61.03
2018-09-02T22:54:11.025Z,61.06
2018-09-02T22:56:41.725Z,61.73
2018-09-02T22:59:11.849Z,60.65
2018-09-02T23:01:41.978Z,61.34
2018-09-02T23:04:12.148Z,61.99
2018-09-02T23:06:41.923Z,61.89
2018-09-02T23:09:12.316Z,61.06
2018-09-02T23:12:06.612Z,61.47
2018-09-02T23:14:36.755Z,61.47
2018-09-02T23:17:06.475Z,61.80
2018-09-02T23:20:21.516Z,62.70
2018-09-02T23:23:09.002Z,62.31
2018-09-02T23:25:38.913Z,61.88
2018-09-02T23:28:09.769Z,61.92
2018-09-02T23:31:08.320Z,62.32
2018-09-02T23:33:38.402Z,62.64
2018-09-02T23:36:34.889Z,62.90
2018-09-02T23:39:06.590Z,62.78
2018-09-02T23:41:52.994Z,63.06
2018-09-02T23:44:22.800Z,62.60
2018-09-02T23:46:52.641Z,62.54
2018-09-02T23:49:37.162Z,62.53
2018-09-02T23:52:07.391Z,60.72
2018-09-02T23:55:07.761Z,60.59
2018-09-02T23:57:37.615Z,63.41
